createdAt,value
2023-11-11T00:01:17.106Z,8.88
2023-11-11T00:03:45.082Z,8.86
2023-11-11T00:06:14.412Z,8.77
2023-11-11T00:08:42.192Z,8.82
2023-11-11T00:11:10.139Z,8.78
2023-11-11T00:13:38.043Z,8.85
2023-11-11T00:16:06.896Z,8.89
2023-11-11T00:18:38.040Z,8.83
2023-11-11T00:21:06.874Z,8.85
2023-11-11T00:23:38.521Z,8.86
2023-11-11T00:26:06.413Z,8.74
2023-11-11T00:28:34.503Z,8.80
2023-11-11T00:31:02.333Z,8.67
2023-11-11T00:33:30.512Z,8.67
2023-11-11T00:35:58.309Z,8.68
2023-11-11T00:38:27.210Z,8.67
2023-11-11T00:40:56.371Z,8.63
2023-11-11T00:43:24.214Z,8.65
2023-11-11T00:45:54.336Z,8.53
2023-11-11T00:48:22.237Z,8.57
2023-11-11T00:50:50.084Z,8.59
2023-11-11T00:53:17.835Z,8.53
2023-11-11T00:55:45.887Z,8.47
2023-11-11T00:58:16.144Z,8.52
2023-11-11T01:00:44.871Z,8.42
2023-11-11T01:03:13.968Z,8.44
2023-11-11T01:05:42.695Z,8.41
2023-11-11T01:08:10.871Z,8.38
2023-11-11T01:10:41.787Z,8.38
2023-11-11T01:13:10.545Z,8.32
2023-11-11T01:15:39.900Z,8.28
2023-11-11T01:18:08.135Z,8.38
2023-11-11T01:20:36.105Z,8.39
2023-11-11T01:23:04.410Z,8.28
2023-11-11T01:25:33.451Z,8.32
2023-11-11T01:28:01.949Z,8.35
2023-11-11T01:30:30.151Z,8.31
2023-11-11T01:32:59.437Z,8.29
2023-11-11T01:35:27.277Z,8.25
2023-11-11T01:37:55.049Z,8.13
2023-11-11T01:40:23.390Z,8.08
2023-11-11T01:42:51.465Z,8.18
2023-11-11T01:45:19.727Z,8.18
2023-11-11T01:47:47.956Z,8.17
2023-11-11T01:50:18.282Z,8.15
2023-11-11T01:52:47.431Z,8.10
2023-11-11T01:55:15.444Z,8.08
2023-11-11T01:57:43.327Z,8.14
2023-11-11T02:00:14.257Z,7.96
2023-11-11T02:02:42.474Z,8.04
2023-11-11T02:05:10.408Z,8.07
2023-11-11T02:07:41.690Z,8.05
2023-11-11T02:10:11.173Z,8.03
2023-11-11T02:12:39.267Z,8.02
2023-11-11T02:15:09.819Z,8.04
2023-11-11T02:17:37.767Z,7.99
2023-11-11T02:20:07.037Z,7.92
2023-11-11T02:22:34.881Z,8.00
2023-11-11T02:25:08.032Z,7.99
2023-11-11T02:27:35.876Z,7.87
2023-11-11T02:30:05.398Z,7.94
2023-11-11T02:32:34.005Z,7.91
2023-11-11T02:35:01.752Z,7.99
2023-11-11T02:37:29.719Z,8.02
2023-11-11T02:39:57.490Z,8.01
2023-11-11T02:42:26.768Z,7.98
2023-11-11T02:44:54.806Z,8.00
2023-11-11T02:47:22.690Z,8.06
2023-11-11T02:49:50.562Z,8.04
2023-11-11T02:52:18.360Z,8.06
2023-11-11T02:54:47.026Z,8.04
2023-11-11T02:57:14.872Z,8.07
2023-11-11T02:59:44.215Z,7.98
2023-11-11T03:02:12.490Z,7.96
2023-11-11T03:04:40.476Z,7.89
2023-11-11T03:07:08.416Z,7.90
2023-11-11T03:09:36.307Z,7.91
2023-11-11T03:12:04.642Z,7.93
2023-11-11T03:14:32.580Z,7.94
2023-11-11T03:17:02.203Z,7.88
2023-11-11T03:19:31.378Z,7.91
2023-11-11T03:21:59.554Z,7.91
2023-11-11T03:24:27.507Z,7.92
2023-11-11T03:26:55.484Z,7.89
2023-11-11T03:29:23.438Z,7.87
2023-11-11T03:31:51.322Z,7.95
2023-11-11T03:34:20.507Z,7.95
2023-11-11T03:36:48.502Z,7.96
2023-11-11T03:39:18.149Z,7.86
2023-11-11T03:41:46.062Z,7.87
2023-11-11T03:44:14.936Z,7.83
2023-11-11T03:46:42.757Z,7.86
2023-11-11T03:49:10.662Z,7.79
2023-11-11T03:51:39.783Z,7.86
2023-11-11T03:54:08.130Z,7.91
2023-11-11T03:56:36.032Z,7.88
2023-11-11T03:59:04.349Z,7.92
2023-11-11T04:01:35.831Z,7.90
2023-11-11T04:04:04.204Z,7.86
2023-11-11T04:06:32.163Z,7.92
2023-11-11T04:09:01.289Z,7.82
2023-11-11T04:11:29.375Z,7.72
2023-11-11T04:14:00.286Z,7.78
2023-11-11T04:16:30.899Z,7.77
2023-11-11T04:18:58.916Z,7.77
2023-11-11T04:21:27.264Z,7.77
2023-11-11T04:23:55.657Z,7.69
2023-11-11T04:26:24.963Z,7.73
2023-11-11T04:28:52.797Z,7.83
2023-11-11T04:31:21.933Z,7.81
2023-11-11T04:33:49.988Z,7.73
2023-11-11T04:36:18.464Z,7.70
2023-11-11T04:38:46.472Z,7.71
2023-11-11T04:41:14.894Z,7.71
2023-11-11T04:43:44.184Z,7.66
2023-11-11T04:46:12.389Z,7.70
2023-11-11T04:48:40.355Z,7.74
2023-11-11T04:51:08.251Z,7.75
2023-11-11T04:53:36.037Z,7.70
2023-11-11T04:56:04.354Z,7.78
2023-11-11T04:58:32.391Z,7.72
2023-11-11T05:01:01.509Z,7.78
2023-11-11T05:03:29.437Z,7.76
2023-11-11T05:05:57.421Z,7.73
2023-11-11T05:08:25.232Z,7.76
2023-11-11T05:10:53.877Z,7.76
2023-11-11T05:13:22.405Z,7.82
2023-11-11T05:16:00.525Z,7.84
2023-11-11T05:18:34.118Z,7.84
2023-11-11T05:21:02.350Z,7.90
2023-11-11T05:23:33.203Z,7.91
2023-11-11T05:26:01.015Z,7.88
2023-11-11T05:28:28.785Z,7.87
2023-11-11T05:30:56.610Z,7.78
2023-11-11T05:33:24.457Z,7.77
2023-11-11T05:35:53.956Z,7.69
2023-11-11T05:38:21.839Z,7.72
2023-11-11T05:40:50.386Z,7.73
2023-11-11T05:43:18.143Z,7.79
2023-11-11T05:45:46.013Z,7.88
2023-11-11T05:48:14.144Z,7.84
2023-11-11T05:50:41.990Z,7.87
2023-11-11T05:53:11.205Z,7.82
2023-11-11T05:55:38.969Z,7.82
2023-11-11T05:58:06.820Z,7.85
2023-11-11T06:00:34.682Z,7.88
2023-11-11T06:03:02.820Z,7.85
2023-11-11T06:05:30.862Z,7.86
2023-11-11T06:07:58.773Z,7.87
2023-11-11T06:10:28.144Z,7.96
2023-11-11T06:12:56.593Z,7.95
2023-11-11T06:15:23.766Z,7.92
2023-11-11T06:17:51.734Z,7.86
2023-11-11T06:20:20.453Z,7.93
2023-11-11T06:23:45.423Z,7.91
2023-11-11T06:25:40.075Z,7.87
2023-11-11T06:28:08.663Z,7.90
2023-11-11T06:30:36.549Z,7.85
2023-11-11T06:33:04.736Z,7.82
2023-11-11T06:35:33.547Z,7.83
2023-11-11T06:38:01.462Z,7.83
2023-11-11T06:40:29.537Z,7.90
2023-11-11T06:42:58.781Z,7.91
2023-11-11T06:45:26.840Z,7.93
2023-11-11T06:47:54.990Z,7.97
2023-11-11T06:50:24.756Z,7.96
2023-11-11T06:52:52.692Z,7.98
2023-11-11T06:55:20.873Z,7.98
2023-11-11T06:57:48.756Z,7.90
2023-11-11T07:00:20.217Z,7.83
2023-11-11T07:02:48.692Z,7.88
2023-11-11T07:05:16.704Z,7.89
2023-11-11T07:07:44.469Z,7.94
2023-11-11T07:10:13.419Z,7.98
2023-11-11T07:12:41.461Z,7.88
2023-11-11T07:15:11.695Z,7.89
2023-11-11T07:17:42.786Z,7.89
2023-11-11T07:20:13.525Z,7.88
2023-11-11T07:22:41.513Z,7.78
2023-11-11T07:25:10.459Z,7.88
2023-11-11T07:27:38.513Z,7.91
2023-11-11T07:30:11.215Z,7.91
2023-11-11T07:32:50.221Z,7.88
2023-11-11T07:35:24.810Z,7.90
2023-11-11T07:37:53.921Z,7.89
2023-11-11T07:40:21.790Z,7.87
2023-11-11T07:42:52.290Z,7.88
2023-11-11T07:45:24.626Z,7.90
2023-11-11T07:47:54.543Z,7.73
2023-11-11T07:50:23.351Z,7.79
2023-11-11T07:52:52.293Z,7.70
2023-11-11T07:55:20.319Z,7.68
2023-11-11T08:00:20.666Z,7.69
2023-11-11T08:02:49.126Z,7.71
2023-11-11T08:05:18.947Z,7.72
2023-11-11T08:07:46.999Z,7.74
2023-11-11T08:10:14.928Z,7.75
2023-11-11T08:12:42.969Z,7.72
2023-11-11T08:15:12.143Z,7.71
2023-11-11T08:17:40.064Z,7.75
2023-11-11T08:20:12.711Z,7.80
2023-11-11T08:22:42.013Z,7.77
2023-11-11T08:25:12.993Z,7.73
2023-11-11T08:27:41.487Z,7.79
2023-11-11T08:30:11.424Z,7.81
2023-11-11T08:32:41.153Z,7.93
2023-11-11T08:35:10.171Z,7.93
2023-11-11T08:37:38.767Z,7.93
2023-11-11T08:40:11.745Z,7.98
2023-11-11T08:42:40.648Z,8.01
2023-11-11T08:45:11.291Z,8.06
2023-11-11T08:47:40.422Z,8.04
2023-11-11T08:50:11.368Z,8.06
2023-11-11T08:52:40.106Z,8.16
2023-11-11T08:55:10.285Z,8.20
2023-11-11T08:57:38.287Z,8.11
2023-11-11T09:00:11.081Z,8.12
2023-11-11T09:02:39.234Z,8.25
2023-11-11T09:05:08.012Z,8.24
2023-11-11T09:07:36.183Z,8.23
2023-11-11T09:10:05.988Z,8.28
2023-11-11T09:12:40.426Z,8.26
2023-11-11T09:15:10.375Z,8.31
2023-11-11T09:17:38.364Z,8.32
2023-11-11T09:20:10.239Z,8.41
2023-11-11T09:22:38.304Z,8.36
2023-11-11T09:25:07.648Z,8.32
2023-11-11T09:27:37.191Z,8.35
2023-11-11T09:30:06.976Z,8.32
2023-11-11T09:32:34.949Z,8.21
2023-11-11T09:35:04.210Z,8.20
2023-11-11T09:37:34.876Z,8.16
2023-11-11T09:40:07.751Z,8.17
2023-11-11T09:42:38.427Z,8.20
2023-11-11T09:47:42.660Z,8.30
2023-11-11T09:50:12.424Z,8.20
2023-11-11T09:52:41.167Z,8.29
2023-11-11T09:55:11.030Z,8.35
2023-11-11T09:57:41.921Z,8.23
2023-11-11T10:00:13.122Z,8.16
2023-11-11T10:02:41.183Z,8.19
2023-11-11T10:05:10.756Z,8.28
2023-11-11T10:07:39.153Z,8.11
2023-11-11T10:10:10.340Z,8.02
2023-11-11T10:12:41.366Z,7.85
2023-11-11T10:15:11.728Z,7.94
2023-11-11T10:17:41.198Z,8.08
2023-11-11T10:20:15.515Z,8.18
2023-11-11T10:22:46.023Z,8.30
2023-11-11T10:25:15.801Z,8.39
2023-11-11T10:27:51.001Z,8.36
2023-11-11T10:30:20.604Z,8.38
2023-11-11T10:32:50.871Z,8.42
2023-11-11T10:35:19.188Z,8.53
2023-11-11T10:37:50.546Z,8.59
2023-11-11T10:40:19.885Z,8.56
2023-11-11T10:42:50.479Z,8.46
2023-11-11T10:45:18.920Z,8.41
2023-11-11T10:47:48.131Z,8.44
2023-11-11T10:50:17.105Z,8.48
2023-11-11T10:52:45.551Z,8.45
2023-11-11T10:55:14.623Z,8.44
2023-11-11T10:57:43.884Z,8.57
2023-11-11T11:00:21.731Z,8.55
2023-11-11T11:02:53.614Z,8.64
2023-11-11T11:05:31.231Z,8.70
2023-11-11T11:08:07.946Z,8.91
2023-11-11T11:10:46.358Z,8.94
2023-11-11T11:13:17.388Z,9.20
2023-11-11T11:15:47.118Z,9.15
2023-11-11T11:18:23.794Z,9.08
2023-11-11T11:20:54.646Z,9.09
2023-11-11T11:23:23.420Z,9.17
2023-11-11T11:25:53.013Z,9.16
2023-11-11T11:28:26.972Z,9.14
2023-11-11T11:31:00.566Z,9.23
2023-11-11T11:33:30.223Z,9.14
2023-11-11T11:36:05.367Z,9.10
2023-11-11T11:38:35.303Z,9.04
2023-11-11T11:41:07.212Z,9.13
2023-11-11T11:43:36.226Z,9.19
2023-11-11T11:46:06.435Z,9.18
2023-11-11T11:48:35.289Z,9.16
2023-11-11T11:51:11.456Z,9.25
2023-11-11T11:53:42.633Z,9.29
2023-11-11T11:56:15.537Z,9.31
2023-11-11T11:58:48.702Z,9.25
2023-11-11T12:01:29.226Z,9.27
2023-11-11T12:03:58.237Z,9.24
2023-11-11T12:06:27.612Z,9.29
2023-11-11T12:08:57.276Z,9.38
2023-11-11T12:11:26.932Z,9.37
2023-11-11T12:13:55.616Z,9.38
2023-11-11T12:16:39.729Z,9.35
2023-11-11T12:19:15.101Z,9.47
2023-11-11T12:21:45.349Z,9.45
2023-11-11T12:24:14.570Z,9.50
2023-11-11T12:26:43.615Z,9.49
2023-11-11T12:29:12.563Z,9.57
2023-11-11T12:31:49.224Z,9.75
2023-11-11T12:34:19.694Z,9.77
2023-11-11T12:36:48.419Z,9.73
2023-11-11T12:39:16.912Z,9.75
2023-11-11T12:41:48.395Z,9.78
2023-11-11T12:44:16.927Z,9.78
2023-11-11T12:46:45.576Z,9.85
2023-11-11T12:49:17.273Z,9.91
2023-11-11T12:51:45.237Z,9.91
2023-11-11T12:54:14.158Z,9.87
2023-11-11T12:56:53.755Z,9.75
2023-11-11T12:59:21.906Z,9.82
2023-11-11T13:01:51.439Z,9.91
2023-11-11T13:04:21.576Z,9.92
2023-11-11T13:06:50.688Z,9.96
2023-11-11T13:09:21.230Z,10.06
2023-11-11T13:11:50.136Z,10.14
2023-11-11T13:14:20.176Z,10.28
2023-11-11T13:16:51.849Z,10.30
2023-11-11T13:19:23.113Z,10.00
2023-11-11T13:21:50.943Z,9.98
2023-11-11T13:24:20.590Z,9.91
2023-11-11T13:26:48.424Z,9.96
2023-11-11T13:29:17.124Z,10.08
2023-11-11T13:31:47.541Z,10.09
2023-11-11T13:34:19.123Z,9.82
2023-11-11T13:36:48.816Z,9.75
2023-11-11T13:39:23.752Z,9.75
2023-11-11T13:41:52.465Z,9.82
2023-11-11T13:44:20.312Z,9.87
2023-11-11T13:46:48.684Z,9.95
2023-11-11T13:49:16.570Z,9.94
2023-11-11T13:51:46.347Z,9.84
2023-11-11T13:54:16.130Z,9.87
2023-11-11T13:56:44.949Z,9.84
2023-11-11T13:59:13.613Z,9.81
2023-11-11T14:01:43.694Z,9.80
2023-11-11T14:04:11.998Z,10.02
2023-11-11T14:06:40.030Z,9.90
2023-11-11T14:09:09.949Z,9.85
2023-11-11T14:11:39.120Z,9.92
2023-11-11T14:14:07.347Z,10.00
2023-11-11T14:16:35.437Z,9.97
2023-11-11T14:19:03.424Z,10.01
2023-11-11T14:21:34.272Z,10.08
2023-11-11T14:24:04.418Z,10.14
2023-11-11T14:26:32.681Z,10.18
2023-11-11T14:29:02.133Z,10.28
2023-11-11T14:31:33.502Z,10.32
2023-11-11T14:34:07.232Z,10.40
2023-11-11T14:36:39.708Z,10.47
2023-11-11T14:39:09.863Z,10.62
2023-11-11T14:41:38.617Z,10.70
2023-11-11T14:44:08.243Z,10.74
2023-11-11T14:46:38.371Z,10.63
2023-11-11T14:49:10.504Z,10.70
2023-11-11T14:51:38.726Z,10.56
2023-11-11T14:54:06.910Z,10.48
2023-11-11T14:56:36.015Z,10.37
2023-11-11T14:59:04.296Z,10.37
2023-11-11T15:01:33.841Z,10.34
2023-11-11T15:04:02.295Z,10.25
2023-11-11T15:06:33.590Z,10.20
2023-11-11T15:09:01.913Z,10.12
2023-11-11T15:11:29.739Z,10.03
2023-11-11T15:13:59.404Z,9.98
2023-11-11T15:16:30.761Z,9.85
2023-11-11T15:19:00.855Z,9.84
2023-11-11T15:21:28.833Z,9.89
2023-11-11T15:23:56.820Z,9.90
2023-11-11T15:26:24.908Z,10.03
2023-11-11T15:28:52.803Z,10.09
2023-11-11T15:31:27.783Z,10.09
2023-11-11T15:33:56.095Z,10.00
2023-11-11T15:36:27.238Z,10.02
2023-11-11T15:38:55.631Z,10.03
2023-11-11T15:41:23.677Z,10.04
2023-11-11T15:43:51.636Z,9.99
2023-11-11T15:46:20.370Z,9.97
2023-11-11T15:48:48.199Z,9.91
2023-11-11T15:51:22.794Z,9.92
2023-11-11T15:53:53.898Z,9.89
2023-11-11T15:56:21.964Z,9.85
2023-11-11T15:58:50.447Z,9.82
2023-11-11T16:01:19.842Z,9.79
2023-11-11T16:03:50.325Z,9.80
2023-11-11T16:06:18.371Z,9.91
2023-11-11T16:08:46.874Z,9.85
2023-11-11T16:11:18.017Z,9.78
2023-11-11T16:13:45.983Z,9.74
2023-11-11T16:16:17.941Z,9.75
2023-11-11T16:18:45.810Z,9.62
2023-11-11T16:21:20.373Z,9.58
2023-11-11T16:23:48.258Z,9.60
2023-11-11T16:26:17.781Z,9.67
2023-11-11T16:28:45.573Z,9.62
2023-11-11T16:31:21.209Z,9.53
2023-11-11T16:33:49.178Z,9.46
2023-11-11T16:36:17.048Z,9.55
2023-11-11T16:38:46.013Z,9.52
2023-11-11T16:41:13.919Z,9.41
2023-11-11T16:43:43.467Z,9.38
2023-11-11T16:46:11.532Z,9.41
2023-11-11T16:48:39.817Z,9.35
2023-11-11T16:51:08.453Z,9.40
2023-11-11T16:53:36.373Z,9.32
2023-11-11T16:56:07.195Z,9.29
2023-11-11T16:58:37.012Z,9.33
2023-11-11T17:01:07.879Z,9.37
2023-11-11T17:03:38.548Z,9.34
2023-11-11T17:06:09.893Z,9.32
2023-11-11T17:08:38.358Z,9.28
2023-11-11T17:11:09.033Z,9.28
2023-11-11T17:13:38.664Z,9.33
2023-11-11T17:16:10.215Z,9.28
2023-11-11T17:18:38.315Z,9.25
2023-11-11T17:21:07.044Z,9.24
2023-11-11T17:23:34.924Z,9.28
2023-11-11T17:26:02.920Z,9.19
2023-11-11T17:28:32.480Z,9.21
2023-11-11T17:31:00.729Z,9.19
2023-11-11T17:33:38.257Z,9.25
2023-11-11T17:36:09.597Z,9.14
2023-11-11T17:38:39.817Z,9.12
2023-11-11T17:41:08.321Z,9.22
2023-11-11T17:43:36.174Z,9.22
2023-11-11T17:46:05.926Z,9.18
2023-11-11T17:48:36.512Z,9.16
2023-11-11T17:51:06.177Z,9.10
2023-11-11T17:53:34.334Z,9.10
2023-11-11T17:56:02.515Z,9.28
2023-11-11T17:58:30.745Z,9.23
2023-11-11T18:01:00.087Z,9.18
2023-11-11T18:03:27.957Z,9.28
2023-11-11T18:05:57.208Z,9.18
2023-11-11T18:08:25.018Z,9.14
2023-11-11T18:10:52.918Z,9.07
2023-11-11T18:13:22.614Z,9.02
2023-11-11T18:15:50.534Z,9.05
2023-11-11T18:18:18.679Z,9.03
2023-11-11T18:20:47.215Z,9.06
2023-11-11T18:23:16.403Z,9.11
2023-11-11T18:25:44.434Z,9.10
2023-11-11T18:28:13.647Z,9.06
2023-11-11T18:30:42.505Z,9.05
2023-11-11T18:33:12.509Z,8.98
2023-11-11T18:35:40.902Z,8.95
2023-11-11T18:38:08.843Z,8.94
2023-11-11T18:40:38.337Z,8.90
2023-11-11T18:43:06.531Z,8.95
2023-11-11T18:45:34.360Z,8.92
2023-11-11T18:48:02.539Z,8.95
2023-11-11T18:50:30.665Z,8.98
2023-11-11T18:52:58.701Z,9.04
2023-11-11T18:55:26.909Z,9.09
2023-11-11T18:57:56.701Z,9.02
2023-11-11T19:00:24.676Z,9.11
2023-11-11T19:02:53.606Z,9.21
2023-11-11T19:05:22.625Z,9.05
2023-11-11T19:07:50.604Z,9.12
2023-11-11T19:10:18.758Z,9.02
2023-11-11T19:12:46.551Z,9.04
2023-11-11T19:15:15.903Z,8.95
2023-11-11T19:17:44.028Z,8.93
2023-11-11T19:20:13.175Z,8.98
2023-11-11T19:22:41.146Z,8.91
2023-11-11T19:25:09.206Z,8.96
2023-11-11T19:27:37.612Z,9.02
2023-11-11T19:30:06.426Z,9.04
2023-11-11T19:32:35.560Z,9.02
2023-11-11T19:35:03.894Z,8.98
2023-11-11T19:37:31.829Z,8.92
2023-11-11T19:39:59.792Z,8.94
2023-11-11T19:42:27.564Z,8.88
2023-11-11T19:44:55.463Z,8.89
2023-11-11T19:47:23.370Z,8.90
2023-11-11T19:49:52.812Z,8.98
2023-11-11T19:52:20.932Z,8.96
2023-11-11T19:54:49.095Z,8.93
2023-11-11T19:57:17.173Z,8.89
2023-11-11T19:59:45.061Z,8.96
2023-11-11T20:02:13.024Z,8.83
2023-11-11T20:04:41.943Z,8.75
2023-11-11T20:07:11.184Z,8.75
2023-11-11T20:09:39.019Z,8.71
2023-11-11T20:12:06.557Z,8.75
2023-11-11T20:14:34.480Z,8.67
2023-11-11T20:17:04.768Z,8.65
2023-11-11T20:19:32.591Z,8.62
2023-11-11T20:22:00.453Z,8.55
2023-11-11T20:24:29.840Z,8.58
2023-11-11T20:26:57.661Z,8.60
2023-11-11T20:29:25.386Z,8.66
2023-11-11T20:31:53.367Z,8.53
2023-11-11T20:34:21.217Z,8.54
2023-11-11T20:36:49.033Z,8.50
2023-11-11T20:39:16.918Z,8.52
2023-11-11T20:41:46.107Z,8.53
2023-11-11T20:44:14.003Z,8.59
2023-11-11T20:46:42.841Z,8.51
2023-11-11T20:49:10.664Z,8.39
2023-11-11T20:51:44.791Z,8.49
2023-11-11T20:54:14.019Z,8.42
2023-11-11T20:56:42.189Z,8.42
2023-11-11T20:59:11.454Z,8.41
2023-11-11T21:01:39.406Z,8.38
2023-11-11T21:04:07.681Z,8.26
2023-11-11T21:06:35.504Z,8.23
2023-11-11T21:09:04.546Z,8.29
2023-11-11T21:11:32.376Z,8.31
2023-11-11T21:14:00.364Z,8.29
2023-11-11T21:16:29.671Z,8.24
2023-11-11T21:18:57.529Z,8.22
2023-11-11T21:21:25.375Z,8.28
2023-11-11T21:23:53.480Z,8.23
2023-11-11T21:26:22.105Z,8.22
2023-11-11T21:28:50.340Z,8.22
2023-11-11T21:31:18.159Z,8.12
2023-11-11T21:33:48.147Z,8.01
2023-11-11T21:36:15.995Z,8.04
2023-11-11T21:38:43.944Z,8.04
2023-11-11T21:41:12.365Z,7.90
2023-11-11T21:43:40.295Z,7.92
2023-11-11T21:46:08.076Z,7.82
2023-11-11T21:48:38.182Z,7.76
2023-11-11T21:51:09.414Z,7.80
2023-11-11T21:53:37.236Z,7.76
2023-11-11T21:56:06.052Z,7.74
2023-11-11T21:58:34.048Z,7.70
2023-11-11T22:01:01.886Z,7.71
2023-11-11T22:03:29.800Z,7.64
2023-11-11T22:05:58.841Z,7.71
2023-11-11T22:08:28.416Z,7.76
2023-11-11T22:10:57.435Z,7.76
2023-11-11T22:13:25.620Z,7.74
2023-11-11T22:15:53.584Z,7.64
2023-11-11T22:18:40.406Z,7.54
2023-11-11T22:21:08.416Z,7.57
2023-11-11T22:23:37.578Z,7.47
2023-11-11T22:26:06.929Z,7.60
2023-11-11T22:28:35.421Z,7.47
2023-11-11T22:31:03.452Z,7.54
2023-11-11T22:33:31.401Z,7.56
2023-11-11T22:35:59.315Z,7.53
2023-11-11T22:38:27.192Z,7.57
2023-11-11T22:40:56.570Z,7.42
2023-11-11T22:43:42.100Z,7.52
2023-11-11T22:46:10.068Z,7.46
2023-11-11T22:48:39.179Z,7.39
2023-11-11T22:51:06.971Z,7.49
2023-11-11T22:53:34.836Z,7.44
2023-11-11T22:56:04.351Z,7.39
2023-11-11T22:58:33.616Z,7.38
2023-11-11T23:01:01.517Z,7.37
2023-11-11T23:03:31.066Z,7.50
2023-11-11T23:05:59.327Z,7.32
2023-11-11T23:08:27.751Z,7.34
2023-11-11T23:10:55.677Z,7.38
2023-11-11T23:13:25.255Z,7.41
2023-11-11T23:15:54.680Z,7.31
2023-11-11T23:18:23.062Z,7.39
2023-11-11T23:20:52.684Z,7.41
2023-11-11T23:23:25.061Z,7.39
2023-11-11T23:25:52.870Z,7.28
2023-11-11T23:28:21.853Z,7.27
2023-11-11T23:30:52.399Z,7.26
2023-11-11T23:33:20.192Z,7.08
2023-11-11T23:35:48.870Z,7.08
2023-11-11T23:38:16.906Z,7.08
2023-11-11T23:40:44.912Z,6.92
2023-11-11T23:43:13.823Z,7.00
2023-11-11T23:45:41.666Z,6.94
2023-11-11T23:48:12.228Z,6.95
2023-11-11T23:50:41.009Z,7.06
2023-11-11T23:53:08.911Z,7.09
2023-11-11T23:55:36.770Z,7.20
2023-11-11T23:58:04.659Z,7.11
